EW5024 Weather Reports


Display with metric or nautical units.
time (UTC)temp
F
wind
direction
speed
MPH
gust
MPH
rain 1hr
in
rain 24hr
in
rain mn
in
humidity
%
barometer
mb
20210228001559 42 313 0.0 1.0 0.00 0.00 0.00 66 1032.6
20210228000119 42 313 0.0 1.0 0.00 0.00 0.00 66 1032.5
20210227234542 43 313 0.0 2.0 0.00 0.00 0.00 66 1032.3
20210227233133 43 300 1.0 3.0 0.00 0.00 0.00 65 1032.2
20210227231559 43 346 0.0 0.0 0.00 0.00 0.00 64 1032.1
20210227230132 44 346 0.0 2.0 0.00 0.00 0.00 63 1031.9
20210227224543 45 346 0.0 2.0 0.00 0.00 0.00 62 1031.8
20210227223104 45 40 1.0 3.0 0.00 0.00 0.00 61 1031.5
20210227221550 46 59 1.0 3.0 0.00 0.00 0.00 57 1031.4
20210227220055 48 68 0.0 0.0 0.00 0.00 0.00 53 1031.3
20210227214548 48 68 0.0 1.0 0.00 0.00 0.00 54 1031.2
20210227213030 49 322 0.0 1.0 0.00 0.00 0.00 51 1031.0
20210227211530 50 246 0.0 0.0 0.00 0.00 0.00 55 1030.8
20210227210054 50 246 0.0 0.0 0.00 0.00 0.00 53 1030.6
20210227204537 51 246 0.0 1.0 0.00 0.00 0.00 50 1030.5
20210227203038 53 253 1.0 4.0 0.00 0.00 0.00 44 1030.2
20210227201527 53 30 0.0 2.0 0.00 0.00 0.00 41 1030.0
20210227200054 54 30 0.0 2.0 0.00 0.00 0.00 41 1029.8
20210227194527 54 30 0.0 2.0 0.00 0.00 0.00 41 1029.5
20210227193223 55 29 0.0 2.0 0.00 0.00 0.00 40 1029.3
20210227191515 55 44 2.0 4.0 0.00 0.00 0.00 39 1029.1
20210227190210 56 26 0.0 4.0 0.00 0.00 0.00 39 1028.8
20210227184608 57 32 2.0 5.0 0.00 0.00 0.00 37 1028.5
20210227183137 58 22 4.0 7.0 0.00 0.00 0.00 36 1028.2
20210227181649 58 30 1.0 4.0 0.00 0.00 0.00 39 1028.0
20210227180114 57 113 1.0 3.0 0.00 0.00 0.00 42 1027.7
20210227174627 58 306 0.0 0.0 0.00 0.00 0.00 41 1027.3
20210227173210 59 306 0.0 2.0 0.00 0.00 0.00 42 1026.9
20210227171613 60 306 0.0 2.0 0.00 0.00 0.00 40 1026.6
20210227170200 61 306 0.0 2.0 0.00 0.00 0.00 38 1026.1
20210227164722 62 306 0.0 0.0 0.00 0.00 0.00 36 1025.9
20210227163117 64 306 0.0 2.0 0.00 0.00 0.00 34 1025.8
20210227161606 64 306 0.0 0.0 0.00 0.00 0.00 33 1025.6
20210227160251 65 306 0.0 0.0 0.00 0.00 0.00 32 1025.5
20210227154654 66 306 0.0 2.0 0.00 0.00 0.00 31 1025.5
20210227153139 67 306 0.0 3.0 0.00 0.00 0.00 31 1025.4
20210227151719 68 303 1.0 5.0 0.00 0.00 0.00 29 1025.4
20210227150229 68 302 3.0 8.0 0.00 0.00 0.00 29 1025.5
20210227144655 68 350 4.0 10.0 0.00 0.00 0.00 28 1025.5
20210227143246 67 360 4.0 11.0 0.00 0.00 0.00 29 1025.5
20210227141714 68 341 5.0 10.0 0.00 0.00 0.00 29 1025.6
20210227140133 67 338 7.0 12.0 0.00 0.00 0.00 29 1025.7
20210227134646 67 13 8.0 17.0 0.00 0.00 0.00 30 1025.8
20210227133127 67 26 7.0 12.0 0.00 0.00 0.00 32 1026.0
20210227131704 67 82 8.0 14.0 0.00 0.00 0.00 31 1026.1
20210227130102 67 12 7.0 13.0 0.00 0.00 0.00 33 1026.2
20210227124617 67 50 10.0 15.0 0.00 0.00 0.00 33 1026.4
20210227123048 67 24 5.0 11.0 0.00 0.00 0.00 34 1026.6
20210227121549 66 5 6.0 10.0 0.00 0.00 0.00 34 1026.7
20210227120053 65 25 8.0 14.0 0.00 0.00 0.00 36 1026.9
20210227114546 65 355 8.0 13.0 0.00 0.00 0.00 37 1027.0
20210227113047 64 15 7.0 13.0 0.00 0.00 0.00 39 1027.3
20210227111530 62 30 10.0 15.0 0.00 0.00 0.00 40 1027.4
20210227110148 62 30 6.0 16.0 0.00 0.00 0.00 42 1027.6
20210227104537 61 15 6.0 13.0 0.00 0.00 0.00 43 1027.8
20210227103029 60 345 6.0 11.0 0.00 0.00 0.00 44 1027.8
20210227101656 58 21 4.0 12.0 0.00 0.00 0.00 46 1028.0
20210227100155 57 26 5.0 10.0 0.00 0.00 0.00 47 1028.1
20210227094641 55 287 4.0 8.0 0.00 0.00 0.00 49 1028.1
20210227093149 54 355 3.0 9.0 0.00 0.00 0.00 50 1028.2
20210227091640 53 38 2.0 10.0 0.00 0.00 0.00 51 1028.3
20210227090135 52 340 3.0 9.0 0.00 0.00 0.00 52 1028.2
20210227084551 51 340 6.0 10.0 0.00 0.00 0.00 53 1028.2
20210227083104 50 360 2.0 9.0 0.00 0.00 0.00 57 1028.1
20210227081608 48 11 0.0 3.0 0.00 0.00 0.00 60 1028.1
20210227080059 47 336 0.0 4.0 0.00 0.00 0.00 62 1028.1
20210227074545 45 304 2.0 4.0 0.00 0.00 0.00 64 1028.2
20210227073042 45 260 0.0 4.0 0.00 0.00 0.00 64 1028.1
20210227071525 45 331 2.0 5.0 0.00 0.00 0.00 64 1028.0
20210227070032 44 5 2.0 4.0 0.00 0.00 0.00 65 1027.8
20210227064545 44 26 1.0 4.0 0.00 0.00 0.00 65 1027.6
20210227063030 43 107 1.0 4.0 0.00 0.00 0.00 65 1027.5
20210227061522 44 306 1.0 5.0 0.00 0.00 0.00 63 1027.3
20210227060036 44 355 3.0 6.0 0.00 0.00 0.00 63 1027.2
20210227054523 45 305 3.0 5.0 0.00 0.00 0.00 62 1027.0
20210227053059 45 306 1.0 5.0 0.00 0.00 0.00 61 1027.0
20210227051539 46 304 0.0 7.0 0.00 0.00 0.00 60 1026.9
20210227050035 46 286 5.0 8.0 0.00 0.00 0.00 60 1026.8
20210227044547 46 305 4.0 8.0 0.00 0.00 0.00 61 1026.8
20210227043031 46 309 2.0 5.0 0.00 0.00 0.00 60 1026.6
20210227041528 46 308 3.0 8.0 0.00 0.00 0.00 60 1026.4
20210227040113 45 269 3.0 6.0 0.00 0.00 0.00 63 1026.3
20210227034755 45 321 0.0 4.0 0.00 0.00 0.00 63 1026.3
20210227033141 45 302 1.0 4.0 0.00 0.00 0.00 63 1026.2
20210227031718 45 299 3.0 4.0 0.00 0.00 0.00 63 1026.1
20210227030158 45 309 2.0 8.0 0.00 0.00 0.00 63 1026.1
20210227024705 44 306 1.0 5.0 0.00 0.00 0.00 66 1026.1
20210227023115 43 304 1.0 3.0 0.00 0.00 0.00 67 1026.1
20210227021631 43 19 1.0 3.0 0.00 0.00 0.00 67 1026.2
20210227020138 44 27 0.0 4.0 0.00 0.00 0.00 66 1026.4
20210227014647 43 304 2.0 4.0 0.00 0.00 0.00 68 1026.4
20210227013146 43 15 0.0 2.0 0.00 0.00 0.00 68 1026.5
20210227011638 44 13 0.0 4.0 0.00 0.00 0.00 66 1026.6
20210227010154 44 342 0.0 3.0 0.00 0.00 0.00 66 1026.5
20210227004622 43 5 0.0 2.0 0.00 0.00 0.00 68 1026.6
20210227003056 43 118 1.0 3.0 0.00 0.00 0.00 69 1026.7